Terminal Aerodrome Forecast
Issued by NWS

Home | Current Version | Previous Version | Graphics & Text | Print | Product List | Glossary On
Versions: 1 2 3 4 5 6 7 8 9 10 11 12 13 14 15
049
FTUS43 KFGF 231726 CCA
TAFBJI
TAF COR
KBJI 231726Z 2318/2418 28008KT P6SM SCT012
      TEMPO 2318/2319 BKN012
     FM240000 VRB04KT P6SM FEW250=

USA.gov is the U.S. government's official web portal to all federal, state and local government web resources and services.